createdAt,value
2019-01-24T00:00:14.461Z,18.73
2019-01-24T00:02:42.989Z,19.47
2019-01-24T00:05:11.657Z,18.57
2019-01-24T00:07:40.138Z,19.80
2019-01-24T00:10:11.930Z,18.90
2019-01-24T00:12:40.372Z,19.00
2019-01-24T00:15:10.227Z,19.47
2019-01-24T00:17:38.725Z,21.77
2019-01-24T00:20:09.976Z,20.00
2019-01-24T00:22:38.690Z,19.23
2019-01-24T00:25:08.781Z,19.70
2019-01-24T00:27:37.333Z,20.07
2019-01-24T00:30:11.995Z,18.87
2019-01-24T00:32:40.459Z,18.70
2019-01-24T00:35:09.779Z,18.47
2019-01-24T00:37:38.509Z,20.00
2019-01-24T00:40:13.017Z,19.43
2019-01-24T00:42:41.449Z,18.83
2019-01-24T00:48:38.423Z,18.23
2019-01-24T00:51:06.873Z,17.20
2019-01-24T00:53:35.321Z,18.10
2019-01-24T00:56:03.968Z,17.90
2019-01-24T00:58:32.400Z,18.50
2019-01-24T01:01:00.910Z,18.60
2019-01-24T01:03:29.486Z,18.60
2019-01-24T01:05:57.989Z,20.47
2019-01-24T01:08:26.421Z,19.80
2019-01-24T01:10:54.992Z,18.30
2019-01-24T01:13:23.426Z,18.37
2019-01-24T01:15:52.006Z,20.07
2019-01-24T01:18:20.602Z,18.97
2019-01-24T01:20:49.126Z,19.60
2019-01-24T01:23:17.559Z,19.77
2019-01-24T01:25:46.489Z,19.30
2019-01-24T01:28:15.264Z,18.87
2019-01-24T01:30:43.838Z,19.00
2019-01-24T01:33:12.487Z,19.63
2019-01-24T01:35:40.926Z,19.17
2019-01-24T01:38:10.085Z,18.83
2019-01-24T01:40:38.715Z,20.00
2019-01-24T01:43:07.219Z,17.50
2019-01-24T01:45:35.790Z,16.90
2019-01-24T01:48:04.428Z,19.93
2019-01-24T01:50:32.871Z,18.87
2019-01-24T01:53:01.302Z,18.63
2019-01-24T01:55:30.010Z,17.37
2019-01-24T01:57:58.442Z,19.67
2019-01-24T02:00:26.947Z,17.70
2019-01-24T02:02:55.402Z,18.83
2019-01-24T02:05:23.973Z,16.90
2019-01-24T02:07:52.477Z,15.80
2019-01-24T02:10:23.341Z,14.77
2019-01-24T02:12:52.109Z,15.03
2019-01-24T02:15:21.377Z,14.73
2019-01-24T02:17:50.573Z,13.00
2019-01-24T02:20:20.944Z,15.73
2019-01-24T02:22:49.513Z,15.80
2019-01-24T02:25:18.311Z,14.37
2019-01-24T02:27:46.913Z,16.50
2019-01-24T02:30:24.458Z,15.63
2019-01-24T02:32:53.017Z,15.60
2019-01-24T02:35:21.525Z,16.77
2019-01-24T02:37:50.272Z,15.23
2019-01-24T02:40:19.040Z,15.43
2019-01-24T02:42:47.472Z,16.07
2019-01-24T02:45:21.578Z,17.43
2019-01-24T02:47:50.145Z,15.63
2019-01-24T02:50:20.526Z,16.63
2019-01-24T02:52:49.141Z,17.40
2019-01-24T02:55:17.710Z,18.90
2019-01-24T02:57:46.377Z,16.70
2019-01-24T03:00:20.003Z,16.57
2019-01-24T03:02:48.870Z,19.27
2019-01-24T03:05:19.749Z,18.63
2019-01-24T03:07:48.753Z,17.00
2019-01-24T03:10:17.528Z,19.80
2019-01-24T03:12:46.189Z,20.03
2019-01-24T03:15:17.514Z,19.40
2019-01-24T03:17:46.093Z,18.27
2019-01-24T03:20:16.455Z,22.10
2019-01-24T03:22:45.366Z,21.47
2019-01-24T03:25:16.053Z,20.60
2019-01-24T03:27:44.535Z,19.63
2019-01-24T03:30:18.426Z,20.63
2019-01-24T03:32:46.937Z,20.70
2019-01-24T03:35:21.452Z,19.90
2019-01-24T03:37:49.993Z,22.70
2019-01-24T03:40:18.757Z,20.97
2019-01-24T03:42:47.264Z,19.10
2019-01-24T03:45:17.477Z,19.90
2019-01-24T03:47:45.908Z,21.00
2019-01-24T03:50:19.338Z,22.43
2019-01-24T03:52:48.715Z,23.03
2019-01-24T03:55:19.393Z,22.73
2019-01-24T03:57:47.973Z,23.33
2019-01-24T04:00:21.237Z,20.77
2019-01-24T04:02:49.929Z,25.30
2019-01-24T04:05:18.729Z,22.20
2019-01-24T04:07:47.225Z,22.33
2019-01-24T04:10:17.801Z,22.50
2019-01-24T04:12:46.491Z,22.90
2019-01-24T04:15:20.120Z,21.63
2019-01-24T04:17:48.767Z,21.80
2019-01-24T04:20:17.438Z,23.50
2019-01-24T04:22:46.096Z,21.53
2019-01-24T04:25:14.679Z,20.77
2019-01-24T04:27:43.109Z,22.10
2019-01-24T04:30:20.377Z,21.60
2019-01-24T04:32:48.954Z,22.73
2019-01-24T04:35:20.061Z,22.20
2019-01-24T04:37:48.430Z,21.50
2019-01-24T04:40:20.484Z,19.30
2019-01-24T04:42:49.159Z,20.57
2019-01-24T04:45:18.370Z,20.73
2019-01-24T04:47:46.806Z,21.33
2019-01-24T04:50:16.901Z,20.43
2019-01-24T04:52:45.530Z,21.30
2019-01-24T04:55:16.305Z,20.63
2019-01-24T04:57:44.742Z,19.80
2019-01-24T05:00:19.158Z,20.67
2019-01-24T05:02:47.661Z,20.60
2019-01-24T05:05:16.097Z,20.60
2019-01-24T05:07:44.726Z,21.77
2019-01-24T05:10:53.069Z,19.90
2019-01-24T05:15:55.441Z,20.13
2019-01-24T05:20:58.226Z,18.87
2019-01-24T05:23:26.656Z,22.50
2019-01-24T05:25:55.129Z,21.60
2019-01-24T05:28:23.567Z,21.00
2019-01-24T05:30:51.998Z,20.37
2019-01-24T05:33:20.458Z,20.63
2019-01-24T05:36:08.129Z,19.80
2019-01-24T05:38:36.584Z,23.10
2019-01-24T05:41:24.368Z,20.83
2019-01-24T05:43:53.656Z,21.10
2019-01-24T05:46:22.989Z,19.50
2019-01-24T05:48:51.423Z,19.63
2019-01-24T05:51:19.917Z,20.07
2019-01-24T05:53:48.357Z,20.57
2019-01-24T05:56:36.125Z,21.43
2019-01-24T05:59:23.814Z,19.03
2019-01-24T06:07:02.151Z,20.47
2019-01-24T06:12:44.539Z,20.77
2019-01-24T06:15:52.911Z,20.10
2019-01-24T06:18:21.346Z,21.13
2019-01-24T06:20:49.781Z,20.80
2019-01-24T06:23:18.243Z,19.80
2019-01-24T06:26:05.921Z,20.03
2019-01-24T06:28:34.392Z,21.20
2019-01-24T06:31:02.825Z,17.77
2019-01-24T06:33:31.258Z,19.20
2019-01-24T06:35:59.729Z,18.67
2019-01-24T06:38:28.161Z,19.27
2019-01-24T06:40:56.595Z,18.03
2019-01-24T06:43:25.058Z,18.93
2019-01-24T06:45:53.489Z,18.80
2019-01-24T06:48:21.923Z,18.00
2019-01-24T06:56:00.093Z,19.50
2019-01-24T07:01:02.129Z,18.97
2019-01-24T07:03:30.586Z,18.67
2019-01-24T07:06:18.207Z,18.87
2019-01-24T07:08:46.689Z,18.23
2019-01-24T07:11:15.102Z,18.07
2019-01-24T07:14:02.978Z,19.57
2019-01-24T07:16:31.410Z,18.00
2019-01-24T07:18:59.866Z,19.70
2019-01-24T07:24:02.804Z,19.70
2019-01-24T07:29:43.710Z,19.10
2019-01-24T07:32:12.173Z,17.90
2019-01-24T07:34:40.609Z,19.20
2019-01-24T07:37:09.042Z,19.20
2019-01-24T07:39:37.521Z,19.87
2019-01-24T07:42:05.953Z,19.50
2019-01-24T07:44:34.386Z,19.63
2019-01-24T07:47:02.852Z,19.40
2019-01-24T07:49:31.312Z,19.87
2019-01-24T07:51:59.789Z,18.00
2019-01-24T07:57:02.920Z,19.80
2019-01-24T08:02:44.738Z,20.27
2019-01-24T08:05:53.182Z,21.90
2019-01-24T08:08:21.613Z,23.50
2019-01-24T08:11:09.298Z,27.47
2019-01-24T08:13:37.749Z,25.03
2019-01-24T08:16:06.189Z,26.97
2019-01-24T08:18:34.672Z,26.07
2019-01-24T08:21:03.105Z,30.73
2019-01-24T08:23:31.536Z,29.40
2019-01-24T08:25:59.996Z,30.63
2019-01-24T08:28:28.440Z,30.60
2019-01-24T08:30:56.873Z,30.77
2019-01-24T08:33:25.416Z,30.80
2019-01-24T08:36:15.692Z,29.77
2019-01-24T08:41:37.015Z,28.80
2019-01-24T08:46:58.555Z,29.77
2019-01-24T08:49:27.053Z,29.67
2019-01-24T08:51:55.557Z,31.10
2019-01-24T08:54:23.990Z,28.17
2019-01-24T08:59:29.765Z,34.60
2019-01-24T09:04:30.817Z,31.10
2019-01-24T09:09:33.262Z,29.30
2019-01-24T09:14:35.378Z,29.50
2019-01-24T09:25:48.822Z,31.20
2019-01-24T09:30:51.797Z,31.27
2019-01-24T09:33:20.296Z,29.10
2019-01-24T09:35:48.725Z,28.40
2019-01-24T09:38:17.160Z,29.97
2019-01-24T09:40:45.630Z,34.57
2019-01-24T09:43:14.061Z,32.40
2019-01-24T09:45:42.493Z,29.07
2019-01-24T09:51:23.506Z,31.70
2019-01-24T09:56:25.786Z,29.43
2019-01-24T09:59:13.439Z,36.40
2019-01-24T10:01:41.871Z,29.93
2019-01-24T10:04:10.301Z,30.40
2019-01-24T10:06:38.770Z,35.77
2019-01-24T10:09:47.113Z,30.33
2019-01-24T10:12:34.985Z,30.50
2019-01-24T10:15:22.745Z,30.40
2019-01-24T10:20:45.241Z,30.93
2019-01-24T10:23:13.674Z,30.60
2019-01-24T10:26:22.071Z,33.57
2019-01-24T10:29:09.823Z,30.87
2019-01-24T10:31:57.541Z,33.00
2019-01-24T10:34:26.040Z,30.93
2019-01-24T10:36:54.496Z,30.00
2019-01-24T10:39:42.254Z,27.13
2019-01-24T10:42:30.024Z,30.87
2019-01-24T10:47:32.882Z,29.00
2019-01-24T10:52:34.929Z,30.13
2019-01-24T10:55:43.378Z,30.17
2019-01-24T10:58:31.129Z,28.30
2019-01-24T11:03:33.716Z,30.30
2019-01-24T11:06:02.188Z,29.23
2019-01-24T11:08:30.618Z,28.80
2019-01-24T11:10:59.049Z,30.63
2019-01-24T11:13:46.828Z,29.17
2019-01-24T11:16:15.262Z,32.37
2019-01-24T11:18:43.694Z,31.50
2019-01-24T11:21:12.199Z,29.50
2019-01-24T11:23:59.947Z,30.03
2019-01-24T11:26:47.738Z,30.17
2019-01-24T11:29:16.182Z,31.83
2019-01-24T11:32:03.825Z,30.57
2019-01-24T11:34:51.497Z,31.33
2019-01-24T11:37:20.014Z,31.57
2019-01-24T11:39:48.455Z,34.97
2019-01-24T11:42:16.913Z,29.00
2019-01-24T11:44:45.362Z,29.23
2019-01-24T11:47:13.818Z,28.77
2019-01-24T11:49:42.319Z,34.07
2019-01-24T11:55:04.469Z,31.43
2019-01-24T11:57:32.925Z,32.57
2019-01-24T12:00:01.367Z,32.10
2019-01-24T12:02:29.798Z,32.50
2019-01-24T12:04:58.254Z,32.60
2019-01-24T12:07:26.681Z,34.00
2019-01-24T12:09:55.113Z,32.47
2019-01-24T12:12:42.840Z,31.17
2019-01-24T12:15:51.192Z,31.77
2019-01-24T12:18:19.690Z,30.00
2019-01-24T12:21:07.309Z,30.50
2019-01-24T12:23:47.562Z,31.10
2019-01-24T12:26:15.996Z,29.03
2019-01-24T12:28:44.431Z,29.30
2019-01-24T12:33:46.657Z,29.50
2019-01-24T12:36:15.092Z,28.70
2019-01-24T12:41:17.941Z,29.13
2019-01-24T12:46:20.828Z,30.03
2019-01-24T12:49:08.413Z,25.90
2019-01-24T12:51:36.848Z,27.73
2019-01-24T12:54:45.311Z,30.80
2019-01-24T12:57:13.725Z,23.50
2019-01-24T12:59:42.152Z,22.17
2019-01-24T13:02:50.527Z,23.50
2019-01-24T13:05:38.278Z,23.60
2019-01-24T13:08:46.694Z,23.00
2019-01-24T13:11:15.121Z,22.00
2019-01-24T13:13:43.590Z,21.53
2019-01-24T13:16:12.058Z,23.03
2019-01-24T13:18:40.493Z,23.47
2019-01-24T13:21:08.925Z,21.73
2019-01-24T13:23:37.385Z,21.67
2019-01-24T13:26:32.856Z,20.20
2019-01-24T13:29:41.228Z,21.40
2019-01-24T13:32:28.972Z,20.90
2019-01-24T13:37:31.826Z,19.87
2019-01-24T13:42:33.946Z,19.50
2019-01-24T13:45:02.412Z,17.93
2019-01-24T13:47:30.848Z,17.63
2019-01-24T13:49:59.294Z,17.13
2019-01-24T13:55:02.161Z,14.50
2019-01-24T14:00:44.471Z,14.63
2019-01-24T14:03:32.346Z,13.90
2019-01-24T14:06:00.778Z,15.07
2019-01-24T14:08:29.211Z,13.93
2019-01-24T14:10:58.118Z,13.03
2019-01-24T14:13:27.817Z,14.73
2019-01-24T14:15:56.246Z,12.50
2019-01-24T14:20:59.296Z,14.43
2019-01-24T14:23:47.171Z,16.83
2019-01-24T14:26:34.855Z,13.43
2019-01-24T14:29:22.493Z,12.97
2019-01-24T14:31:50.923Z,14.10
2019-01-24T14:34:19.351Z,12.70
2019-01-24T14:39:41.093Z,12.40
2019-01-24T14:42:09.524Z,11.73
2019-01-24T14:44:38.016Z,12.53
2019-01-24T14:47:46.365Z,12.77
2019-01-24T14:50:54.820Z,13.13
2019-01-24T14:53:23.284Z,12.77
2019-01-24T14:55:51.680Z,13.23
2019-01-24T14:58:39.708Z,14.80
2019-01-24T15:01:48.053Z,15.40
2019-01-24T15:06:50.197Z,12.83
2019-01-24T15:09:18.696Z,13.70
2019-01-24T15:14:21.576Z,12.60
2019-01-24T15:16:50.143Z,13.27
2019-01-24T15:19:18.573Z,13.17
2019-01-24T15:21:47.006Z,11.63
2019-01-24T15:24:15.456Z,12.00
2019-01-24T15:26:43.883Z,13.53
2019-01-24T15:29:12.313Z,12.17
2019-01-24T15:31:40.806Z,12.87
2019-01-24T15:34:28.422Z,12.43
2019-01-24T15:39:30.747Z,14.07
2019-01-24T15:41:59.207Z,15.03
2019-01-24T15:49:48.764Z,13.77
2019-01-24T15:54:51.707Z,15.90
2019-01-24T15:57:20.135Z,15.20
2019-01-24T15:59:48.706Z,15.20
2019-01-24T16:02:17.163Z,16.43
2019-01-24T16:04:45.588Z,17.07
2019-01-24T16:09:47.533Z,16.63
2019-01-24T16:12:15.959Z,16.60
2019-01-24T16:17:18.793Z,16.63
2019-01-24T16:19:47.264Z,17.37
2019-01-24T16:22:15.692Z,17.37
2019-01-24T16:24:44.125Z,17.03
2019-01-24T16:27:12.584Z,18.90
2019-01-24T16:29:41.013Z,14.80
2019-01-24T16:32:09.581Z,15.77
2019-01-24T16:34:38.036Z,17.20
2019-01-24T16:37:06.468Z,16.63
2019-01-24T16:39:34.896Z,17.47
2019-01-24T16:42:03.402Z,16.43
2019-01-24T16:44:31.839Z,17.80
2019-01-24T16:47:00.274Z,18.90
2019-01-24T16:49:28.734Z,18.23
2019-01-24T16:51:57.166Z,17.33
2019-01-24T16:54:44.954Z,18.93
2019-01-24T16:57:13.419Z,16.93
2019-01-24T16:59:41.853Z,19.40
2019-01-24T17:04:44.294Z,19.03
2019-01-24T17:07:31.994Z,18.27
2019-01-24T17:10:19.745Z,16.80
2019-01-24T17:15:42.263Z,13.43
2019-01-24T17:18:30.959Z,14.20
2019-01-24T17:20:59.392Z,13.07
2019-01-24T17:23:47.046Z,14.30
2019-01-24T17:26:15.488Z,15.73
2019-01-24T17:29:03.135Z,13.50
2019-01-24T17:31:31.565Z,15.13
2019-01-24T17:33:59.997Z,15.50
2019-01-24T17:36:47.725Z,16.77
2019-01-24T17:39:16.214Z,18.70
2019-01-24T17:42:03.810Z,18.60
2019-01-24T17:44:32.243Z,18.20
2019-01-24T17:47:00.745Z,22.10
2019-01-24T17:52:03.703Z,20.20
2019-01-24T17:54:32.174Z,22.93
2019-01-24T17:57:00.630Z,18.73
2019-01-24T18:02:22.106Z,19.63
2019-01-24T18:04:50.567Z,16.47
2019-01-24T18:10:14.187Z,15.70
2019-01-24T18:12:42.865Z,17.97
2019-01-24T18:15:51.214Z,18.20
2019-01-24T18:21:13.426Z,18.67
2019-01-24T18:23:41.899Z,17.50
2019-01-24T18:26:29.515Z,17.27
2019-01-24T18:29:17.130Z,18.00
2019-01-24T18:31:45.562Z,18.13
2019-01-24T18:34:13.994Z,17.47
2019-01-24T18:36:42.466Z,18.47
2019-01-24T18:39:50.824Z,18.40
2019-01-24T18:42:38.601Z,16.90
2019-01-24T18:45:46.945Z,17.60
2019-01-24T18:48:55.651Z,16.07
2019-01-24T18:51:24.157Z,19.33
2019-01-24T18:54:11.861Z,19.83
2019-01-24T18:56:59.485Z,18.87
2019-01-24T18:59:27.981Z,17.40
2019-01-24T19:01:56.412Z,19.30
2019-01-24T19:04:44.096Z,18.17
2019-01-24T19:10:20.755Z,20.63
2019-01-24T19:13:08.428Z,21.23
2019-01-24T19:21:24.706Z,20.27
2019-01-24T19:23:53.173Z,20.70
2019-01-24T19:26:40.934Z,20.60
2019-01-24T19:29:09.399Z,19.97
2019-01-24T19:31:37.840Z,22.00
2019-01-24T19:34:06.424Z,23.73
2019-01-24T19:39:48.516Z,21.40
2019-01-24T19:44:51.291Z,20.90
2019-01-24T19:47:38.992Z,20.97
2019-01-24T19:50:47.373Z,25.03
2019-01-24T19:53:35.057Z,22.70
2019-01-24T19:56:03.601Z,24.00
2019-01-24T19:58:32.037Z,24.23
2019-01-24T20:06:09.105Z,22.57
2019-01-24T20:09:00.250Z,21.33
2019-01-24T20:14:01.018Z,22.07
2019-01-24T20:16:48.838Z,25.20
2019-01-24T20:19:17.278Z,21.70
2019-01-24T20:22:05.228Z,24.33
2019-01-24T20:24:33.671Z,23.83
2019-01-24T20:27:02.122Z,22.40
2019-01-24T20:29:30.595Z,22.30
2019-01-24T20:31:59.045Z,21.57
2019-01-24T20:34:46.736Z,22.80
2019-01-24T20:37:15.194Z,21.27
2019-01-24T20:39:43.658Z,22.73
2019-01-24T20:42:31.480Z,22.50
2019-01-24T20:44:59.943Z,24.13
2019-01-24T20:47:28.378Z,23.37
2019-01-24T20:52:31.371Z,22.67
2019-01-24T20:55:39.796Z,23.60
2019-01-24T21:03:55.314Z,22.53
2019-01-24T21:06:39.768Z,22.10
2019-01-24T21:09:48.119Z,23.00
2019-01-24T21:14:50.978Z,22.50
2019-01-24T21:19:53.886Z,22.50
2019-01-24T21:22:41.614Z,20.30
2019-01-24T21:25:49.963Z,23.03
2019-01-24T21:28:18.447Z,23.30
2019-01-24T21:33:54.979Z,23.67
2019-01-24T21:36:23.414Z,21.87
2019-01-24T21:38:51.850Z,23.20
2019-01-24T21:41:20.308Z,23.63
2019-01-24T21:43:48.767Z,24.40
2019-01-24T21:46:17.178Z,21.30
2019-01-24T21:48:45.639Z,22.83
2019-01-24T21:51:14.113Z,19.10
2019-01-24T21:53:42.546Z,20.50
2019-01-24T21:56:11.190Z,21.80
2019-01-24T21:58:39.627Z,21.97
2019-01-24T22:01:08.062Z,21.77
2019-01-24T22:03:55.651Z,22.30
2019-01-24T22:06:24.086Z,22.47
2019-01-24T22:08:52.522Z,21.07
2019-01-24T22:11:40.318Z,20.17
2019-01-24T22:14:28.073Z,22.20
2019-01-24T22:16:56.534Z,23.27
2019-01-24T22:19:24.971Z,23.30
2019-01-24T22:22:12.631Z,22.80
2019-01-24T22:24:41.076Z,22.27
2019-01-24T22:27:29.107Z,22.00
2019-01-24T22:29:57.565Z,22.10
2019-01-24T22:32:45.227Z,21.67
2019-01-24T22:35:53.585Z,21.80
2019-01-24T22:40:55.944Z,21.97
2019-01-24T22:43:24.380Z,23.43
2019-01-24T22:48:26.954Z,22.40
2019-01-24T22:53:29.042Z,22.90
2019-01-24T22:56:37.437Z,21.37
2019-01-24T22:59:25.194Z,22.60
2019-01-24T23:02:33.567Z,22.53
2019-01-24T23:05:02.009Z,20.50
2019-01-24T23:07:30.448Z,22.50
2019-01-24T23:12:32.948Z,23.30
2019-01-24T23:15:01.488Z,25.83
2019-01-24T23:17:49.109Z,21.20
2019-01-24T23:23:11.953Z,23.23
2019-01-24T23:25:40.399Z,20.20
2019-01-24T23:36:50.959Z,21.53
2019-01-24T23:41:53.733Z,20.60
2019-01-24T23:44:41.450Z,21.43
2019-01-24T23:47:09.899Z,22.37
2019-01-24T23:49:38.323Z,20.83
2019-01-24T23:52:26.051Z,20.80
2019-01-24T23:54:54.500Z,21.17
2019-01-24T23:57:24.032Z,19.23
2019-01-24T23:59:53.123Z,22.10
